sensor_id;sensor_type;location;lat;lon;timestamp;pressure;altitude;pressure_sealevel;temperature;humidity
63204;BME280;49297;43.210;27.914;2024-02-21T00:00:17;102002.28;;;6.58;74.15
63204;BME280;49297;43.210;27.914;2024-02-21T00:02:53;101995.41;;;6.55;74.19
63204;BME280;49297;43.210;27.914;2024-02-21T00:05:18;101994.56;;;6.55;74.31
63204;BME280;49297;43.210;27.914;2024-02-21T00:07:44;101996.22;;;6.56;nan
63204;BME280;49297;43.210;27.914;2024-02-21T00:10:09;102002.44;;;6.55;74.67
63204;BME280;49297;43.210;27.914;2024-02-21T00:12:36;101984.94;;;6.54;74.36
63204;BME280;49297;43.210;27.914;2024-02-21T00:15:02;101990.28;;;6.52;74.29
63204;BME280;49297;43.210;27.914;2024-02-21T00:17:28;101999.06;;;6.53;74.28
63204;BME280;49297;43.210;27.914;2024-02-21T00:19:53;101984.25;;;6.50;73.96
63204;BME280;49297;43.210;27.914;2024-02-21T00:22:19;101988.69;;;6.50;74.62
63204;BME280;49297;43.210;27.914;2024-02-21T00:24:44;101994.78;;;6.50;74.44
63204;BME280;49297;43.210;27.914;2024-02-21T00:27:10;101994.84;;;6.48;74.40
63204;BME280;49297;43.210;27.914;2024-02-21T00:29:35;101992.41;;;6.45;74.22
63204;BME280;49297;43.210;27.914;2024-02-21T00:32:01;101986.34;;;6.43;74.61
63204;BME280;49297;43.210;27.914;2024-02-21T00:34:27;101996.97;;;6.42;74.87
63204;BME280;49297;43.210;27.914;2024-02-21T00:36:52;101991.88;;;6.39;74.80
63204;BME280;49297;43.210;27.914;2024-02-21T00:39:18;101993.56;;;6.40;74.94
63204;BME280;49297;43.210;27.914;2024-02-21T00:41:43;101988.78;;;6.31;75.03
63204;BME280;49297;43.210;27.914;2024-02-21T00:44:09;101988.00;;;6.28;74.74
63204;BME280;49297;43.210;27.914;2024-02-21T00:46:35;101993.25;;;6.28;74.88
63204;BME280;49297;43.210;27.914;2024-02-21T00:49:04;101998.84;;;6.22;74.95
63204;BME280;49297;43.210;27.914;2024-02-21T00:51:30;101992.81;;;6.20;75.22
63204;BME280;49297;43.210;27.914;2024-02-21T00:53:56;101995.44;;;6.20;75.27
63204;BME280;49297;43.210;27.914;2024-02-21T00:56:21;101995.66;;;6.16;75.46
63204;BME280;49297;43.210;27.914;2024-02-21T00:58:47;101987.84;;;6.14;75.50
63204;BME280;49297;43.210;27.914;2024-02-21T01:01:13;101996.75;;;6.12;75.23
63204;BME280;49297;43.210;27.914;2024-02-21T01:03:45;101987.16;;;6.10;75.62
63204;BME280;49297;43.210;27.914;2024-02-21T01:06:11;101990.88;;;6.06;75.40
63204;BME280;49297;43.210;27.914;2024-02-21T01:08:37;101992.88;;;6.01;75.74
63204;BME280;49297;43.210;27.914;2024-02-21T01:11:02;101985.22;;;5.97;75.65
63204;BME280;49297;43.210;27.914;2024-02-21T01:13:28;101987.78;;;5.98;75.81
63204;BME280;49297;43.210;27.914;2024-02-21T01:15:53;101981.69;;;5.98;75.99
63204;BME280;49297;43.210;27.914;2024-02-21T01:18:19;101970.13;;;6.00;76.08
63204;BME280;49297;43.210;27.914;2024-02-21T01:20:46;101971.78;;;6.03;76.39
63204;BME280;49297;43.210;27.914;2024-02-21T01:23:11;101977.88;;;6.03;76.17
63204;BME280;49297;43.210;27.914;2024-02-21T01:25:38;101976.09;;;6.04;76.42
63204;BME280;49297;43.210;27.914;2024-02-21T01:28:05;101964.66;;;6.05;76.36
63204;BME280;49297;43.210;27.914;2024-02-21T01:30:31;101965.44;;;6.07;76.65
63204;BME280;49297;43.210;27.914;2024-02-21T01:32:57;101956.53;;;6.09;76.16
63204;BME280;49297;43.210;27.914;2024-02-21T01:35:23;101955.53;;;6.12;76.24
63204;BME280;49297;43.210;27.914;2024-02-21T01:37:48;101962.47;;;6.13;76.44
63204;BME280;49297;43.210;27.914;2024-02-21T01:40:14;101963.66;;;6.07;75.97
63204;BME280;49297;43.210;27.914;2024-02-21T01:42:41;101964.59;;;6.06;76.61
63204;BME280;49297;43.210;27.914;2024-02-21T01:45:07;101964.59;;;6.06;76.26
63204;BME280;49297;43.210;27.914;2024-02-21T01:47:32;101967.03;;;6.09;76.16
63204;BME280;49297;43.210;27.914;2024-02-21T01:49:58;101956.53;;;6.09;76.34
63204;BME280;49297;43.210;27.914;2024-02-21T01:52:24;101966.91;;;6.13;76.41
63204;BME280;49297;43.210;27.914;2024-02-21T01:54:50;101970.38;;;6.13;76.42
63204;BME280;49297;43.210;27.914;2024-02-21T01:57:15;101967.66;;;6.15;76.39
63204;BME280;49297;43.210;27.914;2024-02-21T01:59:42;101971.16;;;6.15;76.60
63204;BME280;49297;43.210;27.914;2024-02-21T02:02:08;101965.09;;;6.13;76.61
63204;BME280;49297;43.210;27.914;2024-02-21T02:04:33;101961.56;;;6.14;76.15
63204;BME280;49297;43.210;27.914;2024-02-21T02:07:00;101967.59;;;6.16;76.01
63204;BME280;49297;43.210;27.914;2024-02-21T02:09:30;101965.78;;;6.17;75.99
63204;BME280;49297;43.210;27.914;2024-02-21T02:11:58;101969.31;;;6.17;76.43
63204;BME280;49297;43.210;27.914;2024-02-21T02:14:24;101966.75;;;6.16;76.12
63204;BME280;49297;43.210;27.914;2024-02-21T02:16:50;101963.28;;;6.15;75.82
63204;BME280;49297;43.210;27.914;2024-02-21T02:19:16;101962.25;;;6.18;75.88
63204;BME280;49297;43.210;27.914;2024-02-21T02:21:45;101964.88;;;6.18;76.25
63204;BME280;49297;43.210;27.914;2024-02-21T02:24:11;101968.34;;;6.18;76.13
63204;BME280;49297;43.210;27.914;2024-02-21T02:26:39;101972.63;;;6.21;76.11
63204;BME280;49297;43.210;27.914;2024-02-21T02:29:05;101970.84;;;6.21;76.04
63204;BME280;49297;43.210;27.914;2024-02-21T02:31:30;101974.41;;;6.20;76.16
63204;BME280;49297;43.210;27.914;2024-02-21T02:33:56;101965.66;;;6.20;76.22
63204;BME280;49297;43.210;27.914;2024-02-21T02:36:22;101967.28;;;6.22;76.00
63204;BME280;49297;43.210;27.914;2024-02-21T02:38:47;101968.97;;;6.23;76.46
63204;BME280;49297;43.210;27.914;2024-02-21T02:41:13;101968.91;;;6.25;76.23
63204;BME280;49297;43.210;27.914;2024-02-21T02:43:39;101965.50;;;6.23;76.13
63204;BME280;49297;43.210;27.914;2024-02-21T02:46:04;101958.63;;;6.20;76.12
63204;BME280;49297;43.210;27.914;2024-02-21T02:48:30;101963.28;;;6.15;75.62
63204;BME280;49297;43.210;27.914;2024-02-21T02:50:56;101975.88;;;6.08;75.76
63204;BME280;49297;43.210;27.914;2024-02-21T02:53:21;101975.31;;;6.02;75.81
63204;BME280;49297;43.210;27.914;2024-02-21T02:55:47;101979.31;;;5.91;75.84
63204;BME280;49297;43.210;27.914;2024-02-21T02:58:13;101978.84;;;5.83;75.77
63204;BME280;49297;43.210;27.914;2024-02-21T03:00:39;101979.91;;;5.79;76.04
63204;BME280;49297;43.210;27.914;2024-02-21T03:03:07;101975.75;;;5.75;76.04
63204;BME280;49297;43.210;27.914;2024-02-21T03:05:33;101989.19;;;5.69;76.37
63204;BME280;49297;43.210;27.914;2024-02-21T03:07:59;101981.53;;;5.64;76.43
63204;BME280;49297;43.210;27.914;2024-02-21T03:10:26;101978.97;;;5.63;76.64
63204;BME280;49297;43.210;27.914;2024-02-21T03:12:51;101977.28;;;5.62;76.77
63204;BME280;49297;43.210;27.914;2024-02-21T03:15:19;101979.91;;;5.62;77.11
63204;BME280;49297;43.210;27.914;2024-02-21T03:17:45;101983.66;;;5.56;76.66
63204;BME280;49297;43.210;27.914;2024-02-21T03:20:11;101981.28;;;5.51;76.87
63204;BME280;49297;43.210;27.914;2024-02-21T03:22:37;101983.34;;;5.45;77.16
63204;BME280;49297;43.210;27.914;2024-02-21T03:25:03;101979.09;;;5.42;77.23
63204;BME280;49297;43.210;27.914;2024-02-21T03:27:28;101977.38;;;5.41;77.50
63204;BME280;49297;43.210;27.914;2024-02-21T03:29:54;101983.47;;;5.42;77.70
63204;BME280;49297;43.210;27.914;2024-02-21T03:32:22;101981.56;;;5.45;77.74
63204;BME280;49297;43.210;27.914;2024-02-21T03:34:47;101974.53;;;5.46;77.60
63204;BME280;49297;43.210;27.914;2024-02-21T03:37:13;101981.66;;;5.44;77.67
63204;BME280;49297;43.210;27.914;2024-02-21T03:39:39;101987.03;;;5.41;77.56
63204;BME280;49297;43.210;27.914;2024-02-21T03:42:05;101983.47;;;5.42;78.05
63204;BME280;49297;43.210;27.914;2024-02-21T03:44:31;101980.72;;;5.45;77.93
63204;BME280;49297;43.210;27.914;2024-02-21T03:46:57;101972.75;;;5.46;77.96
63204;BME280;49297;43.210;27.914;2024-02-21T03:49:22;101968.59;;;5.42;77.54
63204;BME280;49297;43.210;27.914;2024-02-21T03:51:48;101974.69;;;5.43;77.93
63204;BME280;49297;43.210;27.914;2024-02-21T03:54:13;101962.31;;;5.45;77.83
63204;BME280;49297;43.210;27.914;2024-02-21T03:56:41;101969.22;;;5.47;78.04
63204;BME280;49297;43.210;27.914;2024-02-21T03:59:07;101963.88;;;5.49;77.83
63204;BME280;49297;43.210;27.914;2024-02-21T04:01:36;101978.56;;;5.53;77.96
63204;BME280;49297;43.210;27.914;2024-02-21T04:04:03;101969.69;;;5.56;78.01
63204;BME280;49297;43.210;27.914;2024-02-21T04:06:31;101972.16;;;5.59;77.98
63204;BME280;49297;43.210;27.914;2024-02-21T04:08:56;101975.50;;;5.62;77.89
63204;BME280;49297;43.210;27.914;2024-02-21T04:11:22;101971.84;;;5.65;78.07
63204;BME280;49297;43.210;27.914;2024-02-21T04:13:48;101985.69;;;5.68;78.14
63204;BME280;49297;43.210;27.914;2024-02-21T04:16:16;101979.53;;;5.69;78.04
63204;BME280;49297;43.210;27.914;2024-02-21T04:18:42;101975.88;;;5.72;78.15
63204;BME280;49297;43.210;27.914;2024-02-21T04:21:08;101977.59;;;5.73;77.81
63204;BME280;49297;43.210;27.914;2024-02-21T04:23:36;101979.31;;;5.74;78.01
63204;BME280;49297;43.210;27.914;2024-02-21T04:26:02;101959.97;;;5.75;77.91
63204;BME280;49297;43.210;27.914;2024-02-21T04:28:29;101968.63;;;5.77;78.01
63204;BME280;49297;43.210;27.914;2024-02-21T04:30:55;101965.16;;;5.77;77.99
63204;BME280;49297;43.210;27.914;2024-02-21T04:33:20;101971.25;;;5.77;77.90
63204;BME280;49297;43.210;27.914;2024-02-21T04:35:46;101974.75;;;5.78;78.05
63204;BME280;49297;43.210;27.914;2024-02-21T04:38:12;101974.91;;;5.75;77.91
63204;BME280;49297;43.210;27.914;2024-02-21T04:40:39;101979.31;;;5.74;77.72
63204;BME280;49297;43.210;27.914;2024-02-21T04:43:04;101975.88;;;5.72;77.38
63204;BME280;49297;43.210;27.914;2024-02-21T04:45:30;101978.44;;;5.73;77.85
63204;BME280;49297;43.210;27.914;2024-02-21T04:47:55;101988.13;;;5.73;77.52
63204;BME280;49297;43.210;27.914;2024-02-21T04:50:21;101982.84;;;5.73;77.46
63204;BME280;49297;43.210;27.914;2024-02-21T04:52:46;101988.13;;;5.73;77.66
63204;BME280;49297;43.210;27.914;2024-02-21T04:55:12;101989.03;;;5.72;77.72
63204;BME280;49297;43.210;27.914;2024-02-21T04:57:38;101984.78;;;5.69;77.27
63204;BME280;49297;43.210;27.914;2024-02-21T05:00:03;101993.97;;;5.61;77.10
63204;BME280;49297;43.210;27.914;2024-02-21T05:04:59;101986.22;;;5.58;77.54
63204;BME280;49297;43.210;27.914;2024-02-21T05:07:25;101990.63;;;5.57;77.80
63204;BME280;49297;43.210;27.914;2024-02-21T05:09:54;101978.34;;;5.58;78.18
63204;BME280;49297;43.210;27.914;2024-02-21T05:12:19;101977.56;;;5.56;77.67
63204;BME280;49297;43.210;27.914;2024-02-21T05:14:45;101982.03;;;5.53;77.58
63204;BME280;49297;43.210;27.914;2024-02-21T05:17:11;101988.31;;;5.51;77.72
63204;BME280;49297;43.210;27.914;2024-02-21T05:19:36;101994.63;;;5.47;78.12
63204;BME280;49297;43.210;27.914;2024-02-21T05:22:04;101998.19;;;5.46;78.03
63204;BME280;49297;43.210;27.914;2024-02-21T05:24:31;102014.59;;;5.51;78.29
63204;BME280;49297;43.210;27.914;2024-02-21T05:26:59;102015.44;;;5.51;78.42
63204;BME280;49297;43.210;27.914;2024-02-21T05:29:26;102016.13;;;5.55;78.28
63204;BME280;49297;43.210;27.914;2024-02-21T05:34:18;102018.81;;;5.53;78.36
63204;BME280;49297;43.210;27.914;2024-02-21T05:36:45;102018.91;;;5.52;78.13
63204;BME280;49297;43.210;27.914;2024-02-21T05:39:27;102017.34;;;5.48;78.21
63204;BME280;49297;43.210;27.914;2024-02-21T05:41:55;102021.75;;;5.47;78.50
63204;BME280;49297;43.210;27.914;2024-02-21T05:44:21;102022.38;;;5.52;78.42
63204;BME280;49297;43.210;27.914;2024-02-21T05:46:47;102018.63;;;5.58;78.42
63204;BME280;49297;43.210;27.914;2024-02-21T05:49:19;102027.13;;;5.63;78.42
63204;BME280;49297;43.210;27.914;2024-02-21T05:51:45;102023.44;;;5.67;78.85
63204;BME280;49297;43.210;27.914;2024-02-21T05:54:11;102035.56;;;5.70;78.48
63204;BME280;49297;43.210;27.914;2024-02-21T05:56:36;102029.47;;;5.69;78.50
63204;BME280;49297;43.210;27.914;2024-02-21T05:59:02;102039.06;;;5.70;78.41
63204;BME280;49297;43.210;27.914;2024-02-21T06:01:28;102038.97;;;5.72;78.16
63204;BME280;49297;43.210;27.914;2024-02-21T06:03:53;102041.59;;;5.72;78.27
63204;BME280;49297;43.210;27.914;2024-02-21T06:06:19;102045.84;;;5.75;78.31
63204;BME280;49297;43.210;27.914;2024-02-21T06:08:47;102051.03;;;5.76;78.10
63204;BME280;49297;43.210;27.914;2024-02-21T06:11:12;102052.66;;;5.79;78.32
63204;BME280;49297;43.210;27.914;2024-02-21T06:13:40;102054.31;;;5.81;78.22
63204;BME280;49297;43.210;27.914;2024-02-21T06:16:06;102059.41;;;5.84;78.22
63204;BME280;49297;43.210;27.914;2024-02-21T06:18:32;102054.13;;;5.84;77.96
63204;BME280;49297;43.210;27.914;2024-02-21T06:20:57;102064.66;;;5.84;77.69
63204;BME280;49297;43.210;27.914;2024-02-21T06:23:23;102053.22;;;5.85;77.49
63204;BME280;49297;43.210;27.914;2024-02-21T06:25:48;102061.81;;;5.89;77.65
63204;BME280;49297;43.210;27.914;2024-02-21T06:28:14;102054.78;;;5.89;77.85
63204;BME280;49297;43.210;27.914;2024-02-21T06:30:40;102057.25;;;5.93;77.70
63204;BME280;49297;43.210;27.914;2024-02-21T06:33:07;102052.84;;;5.93;77.99
63204;BME280;49297;43.210;27.914;2024-02-21T06:35:33;102049.25;;;5.96;77.76
63204;BME280;49297;43.210;27.914;2024-02-21T06:37:58;102053.44;;;6.00;77.34
63204;BME280;49297;43.210;27.914;2024-02-21T06:40:25;102049.78;;;6.02;77.84
63204;BME280;49297;43.210;27.914;2024-02-21T06:42:51;102050.50;;;6.06;77.50
63204;BME280;49297;43.210;27.914;2024-02-21T06:45:16;102046.81;;;6.10;77.76
63204;BME280;49297;43.210;27.914;2024-02-21T06:47:42;102038.59;;;6.16;77.64
63204;BME280;49297;43.210;27.914;2024-02-21T06:50:08;102034.78;;;6.22;77.67
63204;BME280;49297;43.210;27.914;2024-02-21T06:52:34;102039.91;;;6.25;77.37
63204;BME280;49297;43.210;27.914;2024-02-21T06:55:04;102036.13;;;6.31;77.15
63204;BME280;49297;43.210;27.914;2024-02-21T06:57:29;102032.50;;;6.33;76.81
63204;BME280;49297;43.210;27.914;2024-02-21T06:59:55;102031.31;;;6.39;76.76
63204;BME280;49297;43.210;27.914;2024-02-21T07:02:21;102034.50;;;6.45;76.40
63204;BME280;49297;43.210;27.914;2024-02-21T07:04:46;102030.09;;;6.46;75.88
63204;BME280;49297;43.210;27.914;2024-02-21T07:07:12;102025.50;;;6.50;76.14
63204;BME280;49297;43.210;27.914;2024-02-21T07:09:38;102032.09;;;6.58;76.34
63204;BME280;49297;43.210;27.914;2024-02-21T07:12:03;102037.69;;;6.68;76.20
63204;BME280;49297;43.210;27.914;2024-02-21T07:14:30;102033.75;;;6.77;75.87
63204;BME280;49297;43.210;27.914;2024-02-21T07:16:57;102040.22;;;6.87;76.15
63204;BME280;49297;43.210;27.914;2024-02-21T07:19:22;102038.06;;;6.95;75.47
63204;BME280;49297;43.210;27.914;2024-02-21T07:21:48;102034.13;;;6.86;75.06
63204;BME280;49297;43.210;27.914;2024-02-21T07:24:14;102025.19;;;6.89;74.63
63204;BME280;49297;43.210;27.914;2024-02-21T07:26:43;102036.34;;;6.94;74.58
63204;BME280;49297;43.210;27.914;2024-02-21T07:29:09;102039.88;;;6.93;74.33
63204;BME280;49297;43.210;27.914;2024-02-21T07:31:41;102027.00;;;6.89;74.67
63204;BME280;49297;43.210;27.914;2024-02-21T07:34:07;102039.13;;;6.91;74.51
63204;BME280;49297;43.210;27.914;2024-02-21T07:36:32;102036.94;;;6.99;74.50
63204;BME280;49297;43.210;27.914;2024-02-21T07:38:58;102043.41;;;6.94;74.36
63204;BME280;49297;43.210;27.914;2024-02-21T07:41:24;102041.44;;;6.97;74.89
63204;BME280;49297;43.210;27.914;2024-02-21T07:43:50;102047.22;;;7.04;74.77
63204;BME280;49297;43.210;27.914;2024-02-21T07:46:17;102041.72;;;7.09;74.18
63204;BME280;49297;43.210;27.914;2024-02-21T07:48:43;102045.38;;;7.06;74.56
63204;BME280;49297;43.210;27.914;2024-02-21T07:51:10;102039.31;;;7.04;74.36
63204;BME280;49297;43.210;27.914;2024-02-21T07:53:35;102049.78;;;7.05;74.24
63204;BME280;49297;43.210;27.914;2024-02-21T07:56:01;102056.41;;;7.13;74.18
63204;BME280;49297;43.210;27.914;2024-02-21T07:58:26;102060.53;;;7.18;74.59
63204;BME280;49297;43.210;27.914;2024-02-21T08:00:52;102059.50;;;7.21;74.00
63204;BME280;49297;43.210;27.914;2024-02-21T08:03:17;102054.06;;;7.24;74.21
63204;BME280;49297;43.210;27.914;2024-02-21T08:05:43;102054.75;;;7.28;74.51
63204;BME280;49297;43.210;27.914;2024-02-21T08:08:09;102053.56;;;7.33;74.52
63204;BME280;49297;43.210;27.914;2024-02-21T08:10:36;102039.78;;;7.44;74.11
63204;BME280;49297;43.210;27.914;2024-02-21T08:13:01;102053.22;;;7.55;74.31
63204;BME280;49297;43.210;27.914;2024-02-21T08:15:27;102044.91;;;7.63;74.21
63204;BME280;49297;43.210;27.914;2024-02-21T08:17:57;102050.56;;;7.71;73.25
63204;BME280;49297;43.210;27.914;2024-02-21T08:23:18;102041.81;;;7.87;72.66
63204;BME280;49297;43.210;27.914;2024-02-21T08:25:44;102046.72;;;7.93;72.84
63204;BME280;49297;43.210;27.914;2024-02-21T08:28:10;102038.47;;;7.99;72.41
63204;BME280;49297;43.210;27.914;2024-02-21T08:30:35;102039.06;;;8.04;72.70
63204;BME280;49297;43.210;27.914;2024-02-21T08:33:02;102043.78;;;8.13;72.53
63204;BME280;49297;43.210;27.914;2024-02-21T08:35:29;102038.22;;;8.18;72.42
63204;BME280;49297;43.210;27.914;2024-02-21T08:37:55;102039.69;;;8.24;72.42
63204;BME280;49297;43.210;27.914;2024-02-21T08:40:20;102038.47;;;8.29;71.77
63204;BME280;49297;43.210;27.914;2024-02-21T08:42:49;102037.59;;;8.29;71.92
63204;BME280;49297;43.210;27.914;2024-02-21T08:45:15;102038.16;;;8.34;72.04
63204;BME280;49297;43.210;27.914;2024-02-21T08:47:40;102047.09;;;8.47;71.01
63204;BME280;49297;43.210;27.914;2024-02-21T08:50:06;102037.59;;;8.59;71.79
63204;BME280;49297;43.210;27.914;2024-02-21T08:52:32;102037.97;;;8.67;71.47
63204;BME280;49297;43.210;27.914;2024-02-21T08:54:57;102040.81;;;8.79;70.75
63204;BME280;49297;43.210;27.914;2024-02-21T08:57:23;102029.78;;;8.86;70.08
63204;BME280;49297;43.210;27.914;2024-02-21T08:59:49;102039.97;;;8.92;69.90
63204;BME280;49297;43.210;27.914;2024-02-21T09:02:14;102036.75;;;8.87;68.48
63204;BME280;49297;43.210;27.914;2024-02-21T09:04:45;102033.00;;;8.91;69.03
63204;BME280;49297;43.210;27.914;2024-02-21T09:07:11;102032.69;;;8.96;68.58
63204;BME280;49297;43.210;27.914;2024-02-21T09:09:37;102038.28;;;9.06;67.97
63204;BME280;49297;43.210;27.914;2024-02-21T09:12:06;102042.16;;;9.14;68.04
63204;BME280;49297;43.210;27.914;2024-02-21T09:14:33;102039.94;;;9.21;67.92
63204;BME280;49297;43.210;27.914;2024-02-21T09:16:58;102037.13;;;9.24;68.74
63204;BME280;49297;43.210;27.914;2024-02-21T09:19:24;102036.06;;;9.27;68.03
63204;BME280;49297;43.210;27.914;2024-02-21T09:21:49;102036.75;;;9.30;68.08
63204;BME280;49297;43.210;27.914;2024-02-21T09:24:15;102030.31;;;9.34;66.95
63204;BME280;49297;43.210;27.914;2024-02-21T09:26:40;102032.63;;;9.39;67.01
63204;BME280;49297;43.210;27.914;2024-02-21T09:29:06;102035.00;;;9.44;66.90
63204;BME280;49297;43.210;27.914;2024-02-21T09:31:32;102031.94;;;9.50;67.00
63204;BME280;49297;43.210;27.914;2024-02-21T09:33:57;102032.41;;;9.57;66.10
63204;BME280;49297;43.210;27.914;2024-02-21T09:36:23;102031.06;;;9.64;66.00
63204;BME280;49297;43.210;27.914;2024-02-21T09:38:49;102031.44;;;9.72;65.71
63204;BME280;49297;43.210;27.914;2024-02-21T09:43:44;102024.44;;;9.98;63.74
63204;BME280;49297;43.210;27.914;2024-02-21T09:46:17;102020.09;;;10.10;64.00
63204;BME280;49297;43.210;27.914;2024-02-21T09:51:14;102013.41;;;10.32;62.67
63204;BME280;49297;43.210;27.914;2024-02-21T09:53:40;102008.00;;;10.33;61.60
63204;BME280;49297;43.210;27.914;2024-02-21T09:56:10;102007.25;;;10.44;60.61
63204;BME280;49297;43.210;27.914;2024-02-21T09:58:36;102012.25;;;10.61;60.46
63204;BME280;49297;43.210;27.914;2024-02-21T10:01:02;102004.84;;;10.66;60.25
63204;BME280;49297;43.210;27.914;2024-02-21T10:03:32;102002.38;;;10.76;60.02
63204;BME280;49297;43.210;27.914;2024-02-21T10:06:01;101999.31;;;10.82;58.97
63204;BME280;49297;43.210;27.914;2024-02-21T10:08:27;101998.69;;;10.79;57.17
63204;BME280;49297;43.210;27.914;2024-02-21T10:10:53;101992.22;;;10.70;57.97
63204;BME280;49297;43.210;27.914;2024-02-21T10:13:28;101991.38;;;10.70;58.10
63204;BME280;49297;43.210;27.914;2024-02-21T10:16:10;101988.94;;;10.66;58.16
63204;BME280;49297;43.210;27.914;2024-02-21T10:18:39;101987.97;;;10.55;58.04
63204;BME280;49297;43.210;27.914;2024-02-21T10:21:08;101983.88;;;10.51;57.80
63204;BME280;49297;43.210;27.914;2024-02-21T10:23:43;101983.75;;;10.52;57.68
63204;BME280;49297;43.210;27.914;2024-02-21T10:26:13;101977.50;;;10.53;57.59
63204;BME280;49297;43.210;27.914;2024-02-21T10:31:26;101976.88;;;10.62;57.32
63204;BME280;49297;43.210;27.914;2024-02-21T10:33:58;101972.22;;;10.66;57.48
63204;BME280;49297;43.210;27.914;2024-02-21T10:36:29;101969.66;;;10.64;57.61
63204;BME280;49297;43.210;27.914;2024-02-21T10:38:55;101974.34;;;10.61;58.88
63204;BME280;49297;43.210;27.914;2024-02-21T10:41:21;101968.41;;;10.57;59.61
63204;BME280;49297;43.210;27.914;2024-02-21T10:43:51;101970.28;;;10.42;61.11
63204;BME280;49297;43.210;27.914;2024-02-21T10:46:21;101969.44;;;10.16;62.28
63204;BME280;49297;43.210;27.914;2024-02-21T10:48:48;101966.22;;;9.98;63.04
63204;BME280;49297;43.210;27.914;2024-02-21T10:51:20;101956.34;;;9.87;63.72
63204;BME280;49297;43.210;27.914;2024-02-21T10:56:31;101962.06;;;9.81;63.75
63204;BME280;49297;43.210;27.914;2024-02-21T11:01:45;101958.88;;;9.89;64.19
63204;BME280;49297;43.210;27.914;2024-02-21T11:04:14;101954.84;;;9.70;64.66
63204;BME280;49297;43.210;27.914;2024-02-21T11:06:40;101955.09;;;9.53;64.50
63204;BME280;49297;43.210;27.914;2024-02-21T11:09:07;101953.09;;;9.57;65.37
63204;BME280;49297;43.210;27.914;2024-02-21T11:11:37;101952.38;;;9.67;65.14
63204;BME280;49297;43.210;27.914;2024-02-21T11:14:21;101948.25;;;9.63;64.43
63204;BME280;49297;43.210;27.914;2024-02-21T11:16:47;101948.84;;;9.41;64.98
63204;BME280;49297;43.210;27.914;2024-02-21T11:22:05;101955.03;;;9.13;65.73
63204;BME280;49297;43.210;27.914;2024-02-21T11:24:46;101946.69;;;8.92;66.76
63204;BME280;49297;43.210;27.914;2024-02-21T11:29:44;101954.69;;;8.90;66.77
63204;BME280;49297;43.210;27.914;2024-02-21T11:32:10;101955.53;;;8.91;67.46
63204;BME280;49297;43.210;27.914;2024-02-21T11:34:41;101947.81;;;8.88;67.77
63204;BME280;49297;43.210;27.914;2024-02-21T11:37:13;101941.13;;;8.82;67.48
63204;BME280;49297;43.210;27.914;2024-02-21T11:39:42;101942.16;;;8.80;68.38
63204;BME280;49297;43.210;27.914;2024-02-21T11:42:08;101946.88;;;8.74;68.15
63204;BME280;49297;43.210;27.914;2024-02-21T11:44:37;101944.44;;;8.71;68.74
63204;BME280;49297;43.210;27.914;2024-02-21T11:47:06;101937.09;;;8.62;68.20
63204;BME280;49297;43.210;27.914;2024-02-21T11:49:36;101935.84;;;8.68;68.52
63204;BME280;49297;43.210;27.914;2024-02-21T11:52:02;101937.28;;;8.73;68.32
63204;BME280;49297;43.210;27.914;2024-02-21T11:54:29;101926.81;;;8.72;69.01
63204;BME280;49297;43.210;27.914;2024-02-21T11:56:58;101930.19;;;8.74;68.40
63204;BME280;49297;43.210;27.914;2024-02-21T11:59:24;101927.16;;;8.80;68.72
63204;BME280;49297;43.210;27.914;2024-02-21T12:01:50;101923.88;;;8.76;69.20
63204;BME280;49297;43.210;27.914;2024-02-21T12:04:26;101920.13;;;8.81;69.00
63204;BME280;49297;43.210;27.914;2024-02-21T12:06:52;101920.84;;;8.83;68.92
63204;BME280;49297;43.210;27.914;2024-02-21T12:09:18;101915.66;;;8.81;69.07
63204;BME280;49297;43.210;27.914;2024-02-21T12:11:44;101922.63;;;8.82;69.21
63204;BME280;49297;43.210;27.914;2024-02-21T12:14:10;101907.44;;;8.86;69.32
63204;BME280;49297;43.210;27.914;2024-02-21T12:16:37;101909.53;;;8.95;69.33
63204;BME280;49297;43.210;27.914;2024-02-21T12:19:02;101913.66;;;8.99;69.59
63204;BME280;49297;43.210;27.914;2024-02-21T12:21:31;101906.38;;;9.03;69.61
63204;BME280;49297;43.210;27.914;2024-02-21T12:23:58;101910.72;;;9.04;69.34
63204;BME280;49297;43.210;27.914;2024-02-21T12:26:31;101902.44;;;8.95;68.95
63204;BME280;49297;43.210;27.914;2024-02-21T12:29:00;101899.88;;;8.94;69.09
63204;BME280;49297;43.210;27.914;2024-02-21T12:31:26;101890.34;;;9.06;69.70
63204;BME280;49297;43.210;27.914;2024-02-21T12:33:52;101897.28;;;9.07;69.19
63204;BME280;49297;43.210;27.914;2024-02-21T12:36:19;101885.78;;;9.08;68.91
63204;BME280;49297;43.210;27.914;2024-02-21T12:38:44;101890.88;;;9.11;69.21
63204;BME280;49297;43.210;27.914;2024-02-21T12:41:15;101889.38;;;9.07;68.81
63204;BME280;49297;43.210;27.914;2024-02-21T12:43:40;101886.59;;;8.95;68.73
63204;BME280;49297;43.210;27.914;2024-02-21T12:46:09;101889.31;;;8.94;69.18
63204;BME280;49297;43.210;27.914;2024-02-21T12:48:35;101883.66;;;9.00;69.54
63204;BME280;49297;43.210;27.914;2024-02-21T12:51:00;101882.41;;;9.06;69.67
63204;BME280;49297;43.210;27.914;2024-02-21T12:53:26;101892.00;;;9.07;69.32
63204;BME280;49297;43.210;27.914;2024-02-21T12:55:51;101891.69;;;8.99;69.60
63204;BME280;49297;43.210;27.914;2024-02-21T12:58:17;101891.22;;;8.92;69.90
63204;BME280;49297;43.210;27.914;2024-02-21T13:00:42;101895.09;;;8.86;69.80
63204;BME280;49297;43.210;27.914;2024-02-21T13:03:08;101889.34;;;8.80;70.30
63204;BME280;49297;43.210;27.914;2024-02-21T13:05:37;101888.44;;;8.66;70.71
63204;BME280;49297;43.210;27.914;2024-02-21T13:08:04;101886.28;;;8.58;71.24
63204;BME280;49297;43.210;27.914;2024-02-21T13:10:30;101887.00;;;8.61;71.34
63204;BME280;49297;43.210;27.914;2024-02-21T13:12:56;101886.19;;;8.60;71.59